Bonanza, Arkansas
Current Conditions -  °F | °C
As of 11:53 PM on Wednesday 28 Jan 2015 (Local Time) from KFSM Reporting Station
Clear Clear  
Wind Chill: 50°   Ceiling: Unl
Heat Index: 50°   Visibility: 10mi
Dew Point: 42°   Wind: 6mph
Humidity: 74%   Direction: 10°N
Pressure: 29.97"   Gusts: NA
Location:  35.2504°N, 94.3714°W
Report Text: KFSM 290553Z AUTO 01005KT 10SM CLR 10/06 A2997 RMK AO2 SLP149 T01000056 10161 20100 402280050 53008
Loading
Personal Weather Stations






























Interactive Weather Map New forecast layout! Learn more

10-Day Weather Forecast

Advertisements
Track Severe Weather on mobile